Time;durP1;ratioP1;P1;durP2;ratioP2;P2;SDS_P1;SDS_P2;PMS_P1;PMS_P2;Temp;Humidity;BMP_temperature;BMP_pressure;BME280_temperature;BME280_humidity;BME280_pressure;Samples;Min_cycle;Max_cycle;Signal;HPM_P1;HPM_P2
2023/02/07 00:00:04;;;;;;;3.53;2.83;;;;;;;;;;517365;28;1659;-76
2023/02/07 00:00:20;;;;;;;3.22;2.63;;;;;;;;;;521357;28;1282;-76
2023/02/07 00:00:35;;;;;;;4.03;2.70;;;;;;;;;;520243;28;1214;-76
2023/02/07 00:00:50;;;;;;;3.67;2.50;;;;;;;;;;519469;28;1220;-76
2023/02/07 00:01:10;;;;;;;3.87;2.50;;;;;;;;;;521301;28;1265;-76
2023/02/07 00:01:31;;;;;;;3.85;2.55;;;;;;;;;;519852;28;1282;-75
2023/02/07 00:01:47;;;;;;;2.92;2.58;;;;;;;;;;519628;28;1476;-76
2023/02/07 00:02:02;;;;;;;3.00;2.60;;;;;;;;;;519236;28;1232;-75
2023/02/07 00:02:17;;;;;;;3.73;2.87;;;;;;;;;;517265;28;1161;-76
2023/02/07 00:02:33;;;;;;;4.18;3.08;;;;;;;;;;519595;28;1200;-75
2023/02/07 00:02:48;;;;;;;4.20;3.00;;;;;;;;;;515882;28;1369;-76
2023/02/07 00:03:04;;;;;;;4.53;3.03;;;;;;;;;;516629;28;1154;-76
2023/02/07 00:03:37;;;;;;;5.10;3.33;;;;;;;;;;517643;28;1299;-75
2023/02/07 00:03:55;;;;;;;6.43;3.58;;;;;;;;;;514823;28;1532;-75
2023/02/07 00:04:10;;;;;;;5.93;3.65;;;;;;;;;;518458;28;1398;-75
2023/02/07 00:04:34;;;;;;;5.68;3.50;;;;;;;;;;520143;28;1071;-76
2023/02/07 00:05:01;;;;;;;4.63;3.30;;;;;;;;;;519628;28;1417;-76
2023/02/07 00:05:17;;;;;;;5.57;3.45;;;;;;;;;;521735;28;1094;-76
2023/02/07 00:05:32;;;;;;;6.37;3.70;;;;;;;;;;520632;28;1967;-75
2023/02/07 00:05:47;;;;;;;10.90;6.13;;;;;;;;;;522252;28;1229;-76
2023/02/07 00:06:07;;;;;;;36.50;18.97;;;;;;;;;;521445;28;1122;-76
2023/02/07 00:07:03;;;;;;;46.60;24.15;;;;;;;;;;521322;28;1409;-75
2023/02/07 00:07:18;;;;;;;27.92;13.85;;;;;;;;;;511529;28;1346;-75
2023/02/07 00:08:04;;;;;;;26.83;13.87;;;;;;;;;;513665;28;1351;-75
2023/02/07 00:08:19;;;;;;;40.38;19.98;;;;;;;;;;516099;28;1281;-75
2023/02/07 00:08:35;;;;;;;30.88;15.35;;;;;;;;;;521666;28;1173;-76
2023/02/07 00:08:52;;;;;;;25.30;13.20;;;;;;;;;;525514;28;1313;-76
2023/02/07 00:09:09;;;;;;;21.25;10.88;;;;;;;;;;522119;28;1277;-75
2023/02/07 00:09:36;;;;;;;19.05;9.68;;;;;;;;;;522678;28;1303;-76
2023/02/07 00:09:51;;;;;;;14.20;7.82;;;;;;;;;;523581;28;1321;-76
2023/02/07 00:10:07;;;;;;;12.87;7.23;;;;;;;;;;520785;28;1152;-75
2023/02/07 00:10:23;;;;;;;11.85;6.95;;;;;;;;;;522175;28;1101;-75
2023/02/07 00:10:38;;;;;;;13.33;7.37;;;;;;;;;;522615;28;1043;-75
2023/02/07 00:10:53;;;;;;;13.13;7.10;;;;;;;;;;522190;28;1350;-75
2023/02/07 00:11:28;;;;;;;12.68;6.68;;;;;;;;;;524603;28;1105;-75
2023/02/07 00:12:02;;;;;;;13.02;6.88;;;;;;;;;;523062;28;1410;-76
2023/02/07 00:12:18;;;;;;;8.13;4.82;;;;;;;;;;525299;28;1195;-76
2023/02/07 00:12:33;;;;;;;5.17;3.33;;;;;;;;;;522819;28;1346;-76
2023/02/07 00:12:49;;;;;;;4.28;2.97;;;;;;;;;;522445;28;1097;-76
2023/02/07 00:13:04;;;;;;;4.83;3.53;;;;;;;;;;518732;28;1354;-77
2023/02/07 00:13:19;;;;;;;5.50;3.90;;;;;;;;;;520124;28;1019;-75
2023/02/07 00:14:01;;;;;;;5.33;3.70;;;;;;;;;;516917;28;1332;-76
2023/02/07 00:14:16;;;;;;;10.57;6.10;;;;;;;;;;516384;28;1329;-76
2023/02/07 00:14:31;;;;;;;10.15;5.75;;;;;;;;;;518070;28;1220;-75
2023/02/07 00:14:53;;;;;;;7.87;5.13;;;;;;;;;;518461;28;1226;-76
2023/02/07 00:15:09;;;;;;;6.93;4.80;;;;;;;;;;516021;28;1315;-76
2023/02/07 00:15:24;;;;;;;7.00;4.70;;;;;;;;;;517253;28;1288;-75
2023/02/07 00:15:39;;;;;;;6.32;4.30;;;;;;;;;;517602;28;1396;-75
2023/02/07 00:15:55;;;;;;;7.40;4.40;;;;;;;;;;515976;28;1230;-75
2023/02/07 00:16:11;;;;;;;8.00;4.50;;;;;;;;;;516584;28;1351;-76
2023/02/07 00:16:31;;;;;;;8.02;4.72;;;;;;;;;;518268;28;1378;-75
2023/02/07 00:16:47;;;;;;;7.88;4.80;;;;;;;;;;518046;28;1249;-76
2023/02/07 00:17:02;;;;;;;7.40;4.60;;;;;;;;;;517071;28;1253;-76
2023/02/07 00:17:17;;;;;;;6.65;4.30;;;;;;;;;;521053;28;1023;-76
2023/02/07 00:17:33;;;;;;;6.77;4.20;;;;;;;;;;521911;28;1195;-75
2023/02/07 00:18:17;;;;;;;7.22;4.18;;;;;;;;;;522802;28;1141;-75
2023/02/07 00:18:33;;;;;;;6.40;4.40;;;;;;;;;;512669;28;1355;-76
2023/02/07 00:18:49;;;;;;;7.10;4.35;;;;;;;;;;513899;28;1317;-76
2023/02/07 00:19:04;;;;;;;6.90;4.20;;;;;;;;;;517198;28;1370;-76
2023/02/07 00:19:22;;;;;;;6.05;4.10;;;;;;;;;;515926;28;1462;-75
2023/02/07 00:19:37;;;;;;;5.30;3.92;;;;;;;;;;517276;28;1423;-76
2023/02/07 00:19:52;;;;;;;4.72;3.60;;;;;;;;;;520012;28;1290;-75
2023/02/07 00:20:08;;;;;;;4.47;3.47;;;;;;;;;;517063;28;1328;-76
2023/02/07 00:20:32;;;;;;;4.45;3.28;;;;;;;;;;519656;28;1236;-75
2023/02/07 00:21:04;;;;;;;4.72;3.05;;;;;;;;;;519720;28;1327;-76
2023/02/07 00:21:22;;;;;;;4.82;3.53;;;;;;;;;;518513;28;1145;-75
2023/02/07 00:21:37;;;;;;;5.70;3.50;;;;;;;;;;521404;28;1436;-75
2023/02/07 00:21:53;;;;;;;5.32;3.53;;;;;;;;;;524439;28;1338;-76
2023/02/07 00:22:08;;;;;;;4.77;3.37;;;;;;;;;;521449;28;1195;-75
2023/02/07 00:22:29;;;;;;;5.20;3.20;;;;;;;;;;518711;28;1388;-75
2023/02/07 00:22:44;;;;;;;4.00;2.90;;;;;;;;;;518962;28;1377;-75
2023/02/07 00:23:02;;;;;;;3.85;2.83;;;;;;;;;;517804;28;1149;-75
2023/02/07 00:23:18;;;;;;;4.00;3.08;;;;;;;;;;519186;28;1281;-75
2023/02/07 00:23:34;;;;;;;3.83;3.13;;;;;;;;;;520312;28;1282;-75
2023/02/07 00:23:50;;;;;;;3.85;3.10;;;;;;;;;;521179;28;1153;-75
2023/02/07 00:24:06;;;;;;;3.72;2.92;;;;;;;;;;520123;28;1534;-75
2023/02/07 00:24:21;;;;;;;4.03;2.90;;;;;;;;;;519665;28;1472;-76
2023/02/07 00:25:02;;;;;;;4.07;3.00;;;;;;;;;;518514;28;1346;-75
2023/02/07 00:25:17;;;;;;;4.13;2.83;;;;;;;;;;520513;28;1297;-75
2023/02/07 00:25:33;;;;;;;4.27;2.90;;;;;;;;;;518316;28;1918;-75
2023/02/07 00:25:48;;;;;;;4.00;2.87;;;;;;;;;;515572;28;1109;-76
2023/02/07 00:26:04;;;;;;;3.67;2.83;;;;;;;;;;515751;28;1358;-76
2023/02/07 00:26:51;;;;;;;3.65;2.85;;;;;;;;;;517898;28;1309;-76
2023/02/07 00:27:06;;;;;;;3.65;2.80;;;;;;;;;;517264;28;1430;-76
2023/02/07 00:27:51;;;;;;;3.60;2.83;;;;;;;;;;515341;28;1251;-76
2023/02/07 00:28:06;;;;;;;3.60;2.80;;;;;;;;;;517769;28;1190;-75
2023/02/07 00:29:01;;;;;;;3.55;2.70;;;;;;;;;;520364;28;1223;-75
2023/02/07 00:29:16;;;;;;;3.58;2.70;;;;;;;;;;512274;28;1193;-76
2023/02/07 00:29:53;;;;;;;3.35;2.63;;;;;;;;;;510789;28;1503;-75
2023/02/07 00:30:08;;;;;;;3.95;2.65;;;;;;;;;;511265;28;900;-76
2023/02/07 00:31:03;;;;;;;3.10;2.70;;;;;;;;;;511039;28;1309;-76
2023/02/07 00:31:24;;;;;;;3.08;2.70;;;;;;;;;;507281;29;1199;-75
2023/02/07 00:31:56;;;;;;;3.10;2.67;;;;;;;;;;514971;28;1403;-76
2023/02/07 00:32:14;;;;;;;3.10;2.58;;;;;;;;;;514491;28;1326;-75
2023/02/07 00:32:50;;;;;;;4.25;2.83;;;;;;;;;;517007;28;1445;-75
2023/02/07 00:33:05;;;;;;;3.90;3.00;;;;;;;;;;516109;28;1437;-76
2023/02/07 00:33:26;;;;;;;4.13;3.08;;;;;;;;;;516168;28;1096;-75
2023/02/07 00:33:54;;;;;;;4.88;3.50;;;;;;;;;;513865;28;1376;-75
2023/02/07 00:34:10;;;;;;;3.72;2.90;;;;;;;;;;512094;28;1022;-76
2023/02/07 00:35:04;;;;;;;3.28;2.70;;;;;;;;;;511763;28;1308;-76
2023/02/07 00:35:19;;;;;;;3.50;2.63;;;;;;;;;;503815;29;1488;-75
2023/02/07 00:36:12;;;;;;;3.55;2.70;;;;;;;;;;502763;29;1370;-75
2023/02/07 00:37:03;;;;;;;2.90;2.50;;;;;;;;;;504011;29;1110;-75
2023/02/07 00:37:18;;;;;;;3.08;2.65;;;;;;;;;;498126;29;1394;-75
2023/02/07 00:38:00;;;;;;;3.00;2.50;;;;;;;;;;502450;29;1303;-75
2023/02/07 00:38:15;;;;;;;2.60;2.40;;;;;;;;;;500096;29;1410;-75
2023/02/07 00:38:54;;;;;;;2.50;2.30;;;;;;;;;;499908;29;1437;-75
2023/02/07 00:39:14;;;;;;;2.85;2.25;;;;;;;;;;498192;29;1436;-75
2023/02/07 00:39:44;;;;;;;;;;;;;;;;;;;;;
2023/02/07 00:40:00;;;;;;;3.55;2.20;;;;;;;;;;499058;29;1237;-75
2023/02/07 00:40:20;;;;;;;3.23;2.20;;;;;;;;;;498234;29;1469;-76
2023/02/07 00:40:48;;;;;;;;;;;;;;;;;;;;;
2023/02/07 00:41:04;;;;;;;3.42;2.38;;;;;;;;;;501513;29;1457;-75
2023/02/07 00:41:20;;;;;;;3.47;2.60;;;;;;;;;;499622;29;1228;-76
2023/02/07 00:41:55;;;;;;;3.35;2.65;;;;;;;;;;497575;29;1232;-75
2023/02/07 00:42:11;;;;;;;3.10;2.33;;;;;;;;;;499381;29;1237;-75
2023/02/07 00:43:41;;;;;;;3.08;2.58;;;;;;;;;;496855;29;1445;-75
2023/02/07 00:44:06;;;;;;;3.10;2.50;;;;;;;;;;498191;29;1285;-75
2023/02/07 00:44:30;;;;;;;3.58;2.70;;;;;;;;;;496152;29;1272;-75
2023/02/07 00:45:03;;;;;;;2.63;2.30;;;;;;;;;;500600;29;1363;-75
2023/02/07 00:45:19;;;;;;;2.80;2.50;;;;;;;;;;501797;29;1321;-76
2023/02/07 00:45:46;;;;;;;2.80;2.40;;;;;;;;;;503524;29;1980;-75
2023/02/07 00:46:04;;;;;;;3.08;2.45;;;;;;;;;;502736;29;1377;-75
2023/02/07 00:46:19;;;;;;;2.70;2.38;;;;;;;;;;503807;29;1142;-75
2023/02/07 00:47:03;;;;;;;2.67;2.40;;;;;;;;;;503972;29;1277;-75
2023/02/07 00:47:19;;;;;;;3.05;2.60;;;;;;;;;;497413;29;1131;-75
2023/02/07 00:47:56;;;;;;;2.93;2.50;;;;;;;;;;497832;29;1328;-75
2023/02/07 00:48:11;;;;;;;3.25;2.60;;;;;;;;;;503555;29;1268;-76
2023/02/07 00:48:45;;;;;;;;;;;;;;;;;;;;;
2023/02/07 00:49:07;;;;;;;3.08;2.47;;;;;;;;;;502930;29;1190;-76
2023/02/07 00:49:47;;;;;;;2.58;2.30;;;;;;;;;;503394;29;1165;-75
2023/02/07 00:50:03;;;;;;;3.70;2.50;;;;;;;;;;502661;29;1387;-75
2023/02/07 00:50:18;;;;;;;2.90;2.33;;;;;;;;;;501995;29;1153;-75
2023/02/07 00:50:52;;;;;;;;;;;;;;;;;;;;;
2023/02/07 00:51:08;;;;;;;3.03;2.30;;;;;;;;;;503352;29;1068;-75
2023/02/07 00:51:55;;;;;;;3.10;2.40;;;;;;;;;;503253;29;1275;-75
2023/02/07 00:52:10;;;;;;;3.03;2.53;;;;;;;;;;497445;29;1516;-75
2023/02/07 00:52:25;;;;;;;2.93;2.47;;;;;;;;;;500560;29;1184;-75
2023/02/07 00:52:40;;;;;;;2.67;2.30;;;;;;;;;;500110;29;1418;-75
2023/02/07 00:52:56;;;;;;;2.78;2.30;;;;;;;;;;501536;29;1207;-76
2023/02/07 00:53:11;;;;;;;2.90;2.30;;;;;;;;;;503262;29;1241;-75
2023/02/07 00:53:38;;;;;;;2.63;2.27;;;;;;;;;;500686;29;1223;-75
2023/02/07 00:54:03;;;;;;;3.15;2.20;;;;;;;;;;500660;29;1325;-75
2023/02/07 00:54:18;;;;;;;2.88;2.28;;;;;;;;;;502017;29;1092;-75
2023/02/07 00:54:36;;;;;;;2.80;2.25;;;;;;;;;;502771;29;1211;-75
2023/02/07 00:54:52;;;;;;;3.00;2.30;;;;;;;;;;503710;29;1389;-74
2023/02/07 00:55:07;;;;;;;3.27;2.30;;;;;;;;;;504584;29;1336;-75
2023/02/07 00:55:22;;;;;;;3.20;2.40;;;;;;;;;;503883;29;1094;-76
2023/02/07 00:55:38;;;;;;;2.97;2.30;;;;;;;;;;505168;29;1185;-75
2023/02/07 00:56:03;;;;;;;2.57;2.10;;;;;;;;;;502475;29;1079;-75
2023/02/07 00:56:19;;;;;;;2.65;2.10;;;;;;;;;;500555;29;1247;-75
2023/02/07 00:56:35;;;;;;;2.83;2.20;;;;;;;;;;501946;29;1185;-74
2023/02/07 00:56:50;;;;;;;2.40;2.20;;;;;;;;;;499678;29;1508;-76
2023/02/07 00:57:05;;;;;;;2.57;2.37;;;;;;;;;;500012;29;1283;-75
2023/02/07 00:57:21;;;;;;;2.50;2.30;;;;;;;;;;500058;29;1238;-75
2023/02/07 00:57:39;;;;;;;2.50;2.30;;;;;;;;;;498999;29;1294;-76
2023/02/07 00:57:55;;;;;;;2.63;2.30;;;;;;;;;;499762;29;1437;-75
2023/02/07 00:58:10;;;;;;;2.67;2.20;;;;;;;;;;501598;29;1293;-75
2023/02/07 00:58:25;;;;;;;2.60;2.20;;;;;;;;;;505554;29;1304;-76
2023/02/07 00:58:40;;;;;;;2.47;2.13;;;;;;;;;;504232;29;1164;-75
2023/02/07 00:58:56;;;;;;;2.80;2.20;;;;;;;;;;503408;29;1178;-76
2023/02/07 00:59:11;;;;;;;2.88;2.22;;;;;;;;;;503905;29;1157;-76
2023/02/07 00:59:26;;;;;;;2.83;2.30;;;;;;;;;;502127;29;1240;-75
2023/02/07 00:59:42;;;;;;;3.13;2.40;;;;;;;;;;501582;29;1034;-75
2023/02/07 01:00:04;;;;;;;3.10;2.20;;;;;;;;;;504383;29;1177;-75
2023/02/07 01:00:37;;;;;;;3.15;2.17;;;;;;;;;;502631;29;1218;-75
2023/02/07 01:01:10;;;;;;;3.03;2.40;;;;;;;;;;502324;29;1110;-75
2023/02/07 01:01:29;;;;;;;2.30;2.10;;;;;;;;;;503010;29;1289;-75
2023/02/07 01:01:44;;;;;;;2.65;2.20;;;;;;;;;;504063;29;1342;-75
2023/02/07 01:01:59;;;;;;;3.10;2.40;;;;;;;;;;503222;29;1327;-75
2023/02/07 01:02:14;;;;;;;3.07;2.30;;;;;;;;;;503342;29;1297;-75
2023/02/07 01:02:30;;;;;;;2.90;2.30;;;;;;;;;;504507;29;1188;-75
2023/02/07 01:02:47;;;;;;;3.03;2.17;;;;;;;;;;503338;29;1042;-75
2023/02/07 01:03:03;;;;;;;3.13;2.10;;;;;;;;;;501142;29;1231;-76
2023/02/07 01:03:18;;;;;;;2.50;2.13;;;;;;;;;;502079;29;1199;-76
2023/02/07 01:03:39;;;;;;;2.60;2.07;;;;;;;;;;501311;29;1219;-75
2023/02/07 01:04:07;;;;;;;2.92;2.20;;;;;;;;;;502782;29;1141;-75
2023/02/07 01:05:06;;;;;;;2.65;2.10;;;;;;;;;;503033;29;1305;-75
2023/02/07 01:05:21;;;;;;;2.20;2.00;;;;;;;;;;502683;29;1291;-76
2023/02/07 01:06:15;;;;;;;2.88;2.25;;;;;;;;;;501022;29;1411;-76
2023/02/07 01:06:19;;;;;;;2.53;2.10;;;;;;;;;;502471;29;1920;-76
2023/02/07 01:06:36;;;;;;;3.03;2.25;;;;;;;;;;501198;29;1269;-75
2023/02/07 01:07:02;;;;;;;2.53;2.10;;;;;;;;;;501703;29;1181;-76
2023/02/07 01:07:17;;;;;;;3.10;2.30;;;;;;;;;;503094;29;1435;-76
2023/02/07 01:07:38;;;;;;;2.80;2.20;;;;;;;;;;505337;29;1323;-75
2023/02/07 01:08:02;;;;;;;2.92;2.17;;;;;;;;;;504618;29;1600;-76
2023/02/07 01:08:17;;;;;;;2.85;2.05;;;;;;;;;;504405;29;1458;-75
2023/02/07 01:08:42;;;;;;;2.63;2.27;;;;;;;;;;503011;29;1180;-75
2023/02/07 01:09:15;;;;;;;2.70;2.20;;;;;;;;;;503880;29;1128;-75
2023/02/07 01:09:30;;;;;;;2.72;2.20;;;;;;;;;;499694;29;1459;-75
2023/02/07 01:09:46;;;;;;;2.47;2.10;;;;;;;;;;501705;29;1301;-75
2023/02/07 01:10:05;;;;;;;2.53;2.00;;;;;;;;;;502329;29;1283;-75
2023/02/07 01:10:40;;;;;;;2.70;2.00;;;;;;;;;;499368;29;1470;-76
2023/02/07 01:10:56;;;;;;;2.75;2.15;;;;;;;;;;510016;28;1686;-75
2023/02/07 01:11:15;;;;;;;3.03;2.22;;;;;;;;;;509639;28;1561;-75
2023/02/07 01:11:33;;;;;;;2.65;2.10;;;;;;;;;;511497;28;1261;-76
2023/02/07 01:12:09;;;;;;;2.53;2.08;;;;;;;;;;518063;28;1532;-75
2023/02/07 01:12:36;;;;;;;3.00;2.13;;;;;;;;;;517916;28;1174;-75
2023/02/07 01:13:02;;;;;;;2.70;2.00;;;;;;;;;;518377;28;1206;-75
2023/02/07 01:13:17;;;;;;;2.70;2.10;;;;;;;;;;519067;28;1378;-75
2023/02/07 01:13:42;;;;;;;2.70;2.10;;;;;;;;;;521110;28;1369;-75
2023/02/07 01:14:01;;;;;;;2.67;2.10;;;;;;;;;;520227;28;1443;-75
2023/02/07 01:14:17;;;;;;;2.95;2.17;;;;;;;;;;518425;28;1518;-75
2023/02/07 01:14:41;;;;;;;2.50;2.03;;;;;;;;;;520038;28;1207;-75
2023/02/07 01:15:06;;;;;;;2.75;2.20;;;;;;;;;;516626;28;1046;-74
2023/02/07 01:15:55;;;;;;;;;;;;;;;;;;;;;
2023/02/07 01:16:19;;;;;;;2.53;2.20;;;;;;;;;;523229;28;1259;-75
2023/02/07 01:16:38;;;;;;;2.67;2.20;;;;;;;;;;522111;28;1116;-75
2023/02/07 01:16:53;;;;;;;2.47;2.10;;;;;;;;;;522712;28;1405;-75
2023/02/07 01:17:09;;;;;;;2.77;2.10;;;;;;;;;;521857;28;1211;-75
2023/02/07 01:17:24;;;;;;;2.57;2.10;;;;;;;;;;519147;28;1308;-76
2023/02/07 01:17:39;;;;;;;2.15;1.95;;;;;;;;;;517430;28;1229;-75
2023/02/07 01:17:54;;;;;;;2.23;1.80;;;;;;;;;;516496;28;1066;-75
2023/02/07 01:18:11;;;;;;;2.73;1.93;;;;;;;;;;517924;28;1186;-76
2023/02/07 01:18:26;;;;;;;2.67;2.13;;;;;;;;;;515285;28;1432;-76
2023/02/07 01:18:42;;;;;;;2.70;2.20;;;;;;;;;;518580;28;1434;-75
2023/02/07 01:19:00;;;;;;;2.80;2.17;;;;;;;;;;519978;28;1206;-75
2023/02/07 01:19:16;;;;;;;2.30;2.00;;;;;;;;;;519164;28;1377;-75
2023/02/07 01:19:35;;;;;;;2.20;2.00;;;;;;;;;;519479;28;1433;-75
2023/02/07 01:19:56;;;;;;;2.38;1.95;;;;;;;;;;518771;28;1494;-75
2023/02/07 01:20:12;;;;;;;2.35;1.80;;;;;;;;;;518802;28;1363;-75
2023/02/07 01:20:56;;;;;;;2.08;1.80;;;;;;;;;;518584;28;1286;-75
2023/02/07 01:21:20;;;;;;;2.50;1.80;;;;;;;;;;517918;28;1276;-76
2023/02/07 01:21:49;;;;;;;2.22;1.80;;;;;;;;;;522001;28;1133;-74
2023/02/07 01:22:04;;;;;;;2.17;1.88;;;;;;;;;;521032;28;1031;-75
2023/02/07 01:23:02;;;;;;;2.28;1.77;;;;;;;;;;521184;28;1102;-75
2023/02/07 01:23:12;;;;;;;1.98;1.70;;;;;;;;;;519071;28;1274;-75
2023/02/07 01:23:36;;;;;;;1.95;1.60;;;;;;;;;;521198;28;1334;-76
2023/02/07 01:24:03;;;;;;;3.03;1.63;;;;;;;;;;519456;28;1512;-75
2023/02/07 01:24:18;;;;;;;2.65;2.10;;;;;;;;;;521045;28;1092;-76
2023/02/07 01:24:44;;;;;;;2.43;2.00;;;;;;;;;;522594;28;1200;-76
2023/02/07 01:25:03;;;;;;;2.30;1.90;;;;;;;;;;519700;28;1422;-75
2023/02/07 01:25:18;;;;;;;2.08;1.88;;;;;;;;;;520561;28;1369;-75
2023/02/07 01:25:43;;;;;;;2.10;1.90;;;;;;;;;;520077;28;1382;-76
2023/02/07 01:26:07;;;;;;;1.90;1.63;;;;;;;;;;520329;28;1164;-75
2023/02/07 01:26:27;;;;;;;1.90;1.70;;;;;;;;;;519074;28;1430;-76
2023/02/07 01:27:05;;;;;;;2.60;1.73;;;;;;;;;;511319;28;1592;-76
2023/02/07 01:27:23;;;;;;;2.03;1.80;;;;;;;;;;516656;28;1209;-75
2023/02/07 01:27:53;;;;;;;2.20;1.90;;;;;;;;;;515804;28;1280;-75
2023/02/07 01:28:09;;;;;;;2.08;1.73;;;;;;;;;;517900;28;1528;-75
2023/02/07 01:28:24;;;;;;;2.00;1.63;;;;;;;;;;519369;28;1110;-76
2023/02/07 01:29:03;;;;;;;2.20;1.75;;;;;;;;;;520889;28;1321;-76
2023/02/07 01:29:18;;;;;;;2.10;1.80;;;;;;;;;;520996;28;1506;-76
2023/02/07 01:30:04;;;;;;;2.10;1.83;;;;;;;;;;521009;28;1169;-77
2023/02/07 01:30:19;;;;;;;1.90;1.67;;;;;;;;;;520505;28;1431;-76
2023/02/07 01:30:39;;;;;;;1.70;1.60;;;;;;;;;;520756;28;1061;-77
2023/02/07 01:30:54;;;;;;;2.00;1.65;;;;;;;;;;521858;28;1114;-76
2023/02/07 01:31:11;;;;;;;1.90;1.70;;;;;;;;;;524492;28;1144;-76
2023/02/07 01:31:51;;;;;;;1.90;1.70;;;;;;;;;;522237;28;1381;-76
2023/02/07 01:32:06;;;;;;;1.77;1.58;;;;;;;;;;521067;28;1593;-76
2023/02/07 01:32:24;;;;;;;1.87;1.60;;;;;;;;;;520058;28;1339;-76
2023/02/07 01:32:39;;;;;;;2.17;1.80;;;;;;;;;;519258;28;1419;-76
2023/02/07 01:33:04;;;;;;;2.27;1.90;;;;;;;;;;520342;28;1176;-76
2023/02/07 01:33:19;;;;;;;2.30;1.70;;;;;;;;;;521376;28;1275;-76
2023/02/07 01:33:53;;;;;;;2.30;1.83;;;;;;;;;;520191;28;1336;-76
2023/02/07 01:34:11;;;;;;;2.30;1.80;;;;;;;;;;522511;28;1264;-76
2023/02/07 01:34:55;;;;;;;2.47;1.85;;;;;;;;;;525569;28;1140;-75
2023/02/07 01:35:11;;;;;;;2.13;1.70;;;;;;;;;;514532;28;1471;-76
2023/02/07 01:35:56;;;;;;;2.28;1.80;;;;;;;;;;516460;28;1413;-76
2023/02/07 01:36:14;;;;;;;1.88;1.67;;;;;;;;;;518561;28;1297;-76
2023/02/07 01:36:52;;;;;;;2.00;1.80;;;;;;;;;;515759;28;1354;-76
2023/02/07 01:37:08;;;;;;;2.42;1.70;;;;;;;;;;508371;29;1373;-77
2023/02/07 01:37:35;;;;;;;2.50;1.77;;;;;;;;;;512560;28;1214;-76
2023/02/07 01:38:00;;;;;;;;;;;;;;;;;;;;;
2023/02/07 01:38:16;;;;;;;2.40;2.00;;;;;;;;;;514129;28;1307;-76
2023/02/07 01:39:05;;;;;;;2.60;2.00;;;;;;;;;;517365;28;1197;-76
2023/02/07 01:39:20;;;;;;;2.70;2.20;;;;;;;;;;517414;28;1004;-76
2023/02/07 01:39:56;;;;;;;3.08;2.17;;;;;;;;;;516136;28;1377;-76
2023/02/07 01:40:12;;;;;;;2.38;1.90;;;;;;;;;;515852;28;1210;-76
2023/02/07 01:40:55;;;;;;;2.28;1.92;;;;;;;;;;515639;28;1228;-76
2023/02/07 01:41:12;;;;;;;2.10;1.90;;;;;;;;;;514215;28;1420;-77
2023/02/07 01:41:52;;;;;;;2.08;1.83;;;;;;;;;;515115;28;1245;-76
2023/02/07 01:42:14;;;;;;;2.00;1.80;;;;;;;;;;516706;28;1300;-76
2023/02/07 01:43:05;;;;;;;2.42;2.10;;;;;;;;;;513791;28;1311;-76
2023/02/07 01:43:24;;;;;;;2.03;1.85;;;;;;;;;;510819;28;1446;-76
2023/02/07 01:43:56;;;;;;;2.10;1.90;;;;;;;;;;510637;29;1307;-76
2023/02/07 01:44:22;;;;;;;2.22;2.00;;;;;;;;;;511657;28;1301;-76
2023/02/07 01:44:38;;;;;;;2.13;1.90;;;;;;;;;;515285;28;1167;-76
2023/02/07 01:45:05;;;;;;;2.50;2.10;;;;;;;;;;515249;28;1283;-76
2023/02/07 01:45:27;;;;;;;2.20;1.92;;;;;;;;;;515026;28;1530;-76
2023/02/07 01:45:48;;;;;;;2.17;1.98;;;;;;;;;;515720;28;1918;-75
2023/02/07 01:46:03;;;;;;;2.15;1.95;;;;;;;;;;514908;28;1239;-76
2023/02/07 01:46:19;;;;;;;2.00;1.80;;;;;;;;;;516440;28;1397;-76
2023/02/07 01:46:37;;;;;;;2.38;1.90;;;;;;;;;;516515;28;1297;-76
2023/02/07 01:46:54;;;;;;;2.92;2.03;;;;;;;;;;517136;28;1327;-76
2023/02/07 01:47:19;;;;;;;2.63;2.10;;;;;;;;;;516844;28;1389;-76
2023/02/07 01:47:36;;;;;;;2.40;2.10;;;;;;;;;;516567;28;1115;-76
2023/02/07 01:48:12;;;;;;;2.63;2.10;;;;;;;;;;513874;28;1417;-76
2023/02/07 01:48:39;;;;;;;2.10;1.90;;;;;;;;;;513469;28;1506;-76
2023/02/07 01:49:03;;;;;;;2.70;2.13;;;;;;;;;;513617;28;1471;-76
2023/02/07 01:49:24;;;;;;;2.40;1.92;;;;;;;;;;515082;28;1221;-76
2023/02/07 01:49:40;;;;;;;1.83;1.70;;;;;;;;;;514614;28;1386;-76
2023/02/07 01:50:02;;;;;;;2.00;1.80;;;;;;;;;;514407;28;1354;-76
2023/02/07 01:50:18;;;;;;;2.17;1.98;;;;;;;;;;513955;28;1434;-76
2023/02/07 01:50:44;;;;;;;2.00;1.80;;;;;;;;;;513670;28;1336;-76
2023/02/07 01:51:06;;;;;;;2.20;1.83;;;;;;;;;;512424;28;1378;-76
2023/02/07 01:51:23;;;;;;;2.10;1.90;;;;;;;;;;512905;28;1258;-76
2023/02/07 01:51:44;;;;;;;2.10;1.90;;;;;;;;;;513030;28;1119;-76
2023/02/07 01:52:09;;;;;;;2.47;2.05;;;;;;;;;;513943;28;1241;-76
2023/02/07 01:52:40;;;;;;;3.10;2.10;;;;;;;;;;514386;28;1507;-76
2023/02/07 01:52:59;;;;;;;2.10;1.90;;;;;;;;;;513542;28;1112;-76
2023/02/07 01:53:18;;;;;;;2.08;1.88;;;;;;;;;;515589;28;1232;-76
2023/02/07 01:53:36;;;;;;;2.22;2.00;;;;;;;;;;514607;28;1345;-76
2023/02/07 01:54:12;;;;;;;2.40;2.10;;;;;;;;;;513619;28;1191;-76
2023/02/07 01:55:05;;;;;;;2.40;2.20;;;;;;;;;;511940;28;1371;-76
2023/02/07 01:55:38;;;;;;;2.30;2.10;;;;;;;;;;513245;28;1132;-76
2023/02/07 01:56:07;;;;;;;2.88;2.28;;;;;;;;;;512299;28;1417;-76
2023/02/07 01:56:24;;;;;;;2.40;2.20;;;;;;;;;;514238;28;1246;-76
2023/02/07 01:56:43;;;;;;;2.25;2.05;;;;;;;;;;514694;28;1112;-75
2023/02/07 01:57:08;;;;;;;2.42;2.20;;;;;;;;;;513496;28;1395;-76
2023/02/07 01:57:24;;;;;;;2.58;2.20;;;;;;;;;;515953;28;1283;-76
2023/02/07 01:57:40;;;;;;;2.42;2.22;;;;;;;;;;514435;28;1270;-76
2023/02/07 01:57:56;;;;;;;2.45;2.17;;;;;;;;;;515672;28;1562;-76
2023/02/07 01:58:11;;;;;;;2.97;2.25;;;;;;;;;;513982;28;1248;-77
2023/02/07 01:58:39;;;;;;;2.75;2.20;;;;;;;;;;515291;28;1096;-76
2023/02/07 01:58:55;;;;;;;2.85;2.20;;;;;;;;;;514197;28;1175;-75
2023/02/07 01:59:11;;;;;;;2.80;2.28;;;;;;;;;;514053;28;1400;-76
2023/02/07 01:59:42;;;;;;;2.40;2.20;;;;;;;;;;515048;28;1327;-76
2023/02/07 02:00:05;;;;;;;2.50;2.20;;;;;;;;;;515039;28;1265;-76
2023/02/07 02:00:41;;;;;;;2.80;2.25;;;;;;;;;;513720;28;1323;-76
2023/02/07 02:01:03;;;;;;;2.58;2.30;;;;;;;;;;512706;28;1256;-76
2023/02/07 02:01:23;;;;;;;2.33;2.10;;;;;;;;;;513957;28;1316;-76
2023/02/07 02:01:38;;;;;;;2.88;2.28;;;;;;;;;;516462;28;1151;-75
2023/02/07 02:01:55;;;;;;;2.67;2.20;;;;;;;;;;516588;28;1213;-76
2023/02/07 02:02:13;;;;;;;2.45;2.20;;;;;;;;;;513961;28;1260;-76
2023/02/07 02:02:55;;;;;;;2.40;2.10;;;;;;;;;;514738;28;1534;-76
2023/02/07 02:03:10;;;;;;;2.70;2.30;;;;;;;;;;513911;28;1335;-76
2023/02/07 02:03:45;;;;;;;2.50;2.27;;;;;;;;;;511587;28;1258;-76
2023/02/07 02:04:01;;;;;;;2.63;2.40;;;;;;;;;;514668;28;1123;-76
2023/02/07 02:04:16;;;;;;;2.83;2.25;;;;;;;;;;514172;28;1292;-76
2023/02/07 02:05:03;;;;;;;2.80;2.17;;;;;;;;;;512619;28;1182;-75
2023/02/07 02:05:18;;;;;;;2.45;2.10;;;;;;;;;;513313;28;1032;-76
2023/02/07 02:06:03;;;;;;;2.43;2.00;;;;;;;;;;512630;28;1249;-75
2023/02/07 02:06:19;;;;;;;2.55;2.00;;;;;;;;;;514620;28;1278;-76
2023/02/07 02:06:41;;;;;;;2.45;2.00;;;;;;;;;;512947;28;1418;-75
2023/02/07 02:06:57;;;;;;;2.55;2.03;;;;;;;;;;512605;28;1415;-76
2023/02/07 02:07:49;;;;;;;2.53;2.13;;;;;;;;;;511027;28;1262;-76
2023/02/07 02:08:04;;;;;;;2.38;2.17;;;;;;;;;;512223;28;1453;-76
2023/02/07 02:08:43;;;;;;;2.72;2.22;;;;;;;;;;512458;28;1143;-76
2023/02/07 02:09:06;;;;;;;2.10;1.90;;;;;;;;;;512414;28;1138;-75
2023/02/07 02:09:26;;;;;;;2.45;2.20;;;;;;;;;;514870;28;1316;-76
2023/02/07 02:09:44;;;;;;;2.63;2.20;;;;;;;;;;514152;28;1372;-76
2023/02/07 02:10:19;;;;;;;2.60;2.28;;;;;;;;;;517327;28;1214;-76
2023/02/07 02:11:11;;;;;;;2.47;2.17;;;;;;;;;;515259;28;1087;-76
2023/02/07 02:11:48;;;;;;;3.08;2.30;;;;;;;;;;514974;28;1252;-76
2023/02/07 02:12:11;;;;;;;2.75;2.35;;;;;;;;;;515542;28;2384;-76
2023/02/07 02:12:56;;;;;;;2.40;2.20;;;;;;;;;;515383;28;1283;-76
2023/02/07 02:13:46;;;;;;;2.38;2.17;;;;;;;;;;516831;28;1123;-75
2023/02/07 02:14:26;;;;;;;2.40;2.00;;;;;;;;;;513510;28;1322;-76
2023/02/07 02:14:50;;;;;;;2.30;2.10;;;;;;;;;;516787;28;1510;-76
2023/02/07 02:15:40;;;;;;;2.35;2.03;;;;;;;;;;516094;28;1499;-76
2023/02/07 02:16:27;;;;;;;2.20;2.00;;;;;;;;;;515811;28;1213;-76
2023/02/07 02:16:46;;;;;;;2.40;1.90;;;;;;;;;;519048;28;1126;-75
2023/02/07 02:17:23;;;;;;;2.80;2.00;;;;;;;;;;516189;28;1347;-76
2023/02/07 02:17:59;;;;;;;2.10;1.80;;;;;;;;;;516212;28;1430;-77
2023/02/07 02:18:55;;;;;;;1.95;1.75;;;;;;;;;;518672;28;1395;-76
2023/02/07 02:19:48;;;;;;;2.10;1.77;;;;;;;;;;520965;28;1441;-76
2023/02/07 02:20:30;;;;;;;2.08;1.88;;;;;;;;;;522692;28;1288;-76
2023/02/07 02:21:49;;;;;;;;;;;;;;;;;;;;;
2023/02/07 02:22:17;;;;;;;1.92;1.75;;;;;;;;;;524360;28;1066;-76
2023/02/07 02:23:09;;;;;;;1.98;1.77;;;;;;;;;;524454;28;1166;-76
2023/02/07 02:24:02;;;;;;;1.90;1.75;;;;;;;;;;524849;28;1078;-76
2023/02/07 02:24:32;;;;;;;2.15;1.90;;;;;;;;;;524889;28;1294;-76
2023/02/07 02:25:21;;;;;;;1.90;1.80;;;;;;;;;;523842;28;1265;-76
2023/02/07 02:25:56;;;;;;;2.00;1.80;;;;;;;;;;523541;28;1433;-75
2023/02/07 02:26:22;;;;;;;2.30;2.00;;;;;;;;;;521957;28;1149;-77
2023/02/07 02:27:04;;;;;;;2.10;1.90;;;;;;;;;;521867;28;1134;-75
2023/02/07 02:27:49;;;;;;;2.00;1.80;;;;;;;;;;522269;28;1117;-76
2023/02/07 02:28:08;;;;;;;2.10;1.90;;;;;;;;;;523748;28;1275;-76
2023/02/07 02:28:54;;;;;;;2.17;1.83;;;;;;;;;;525042;28;1232;-76
2023/02/07 02:29:50;;;;;;;1.95;1.75;;;;;;;;;;525519;28;1157;-76
2023/02/07 02:30:35;;;;;;;2.05;1.75;;;;;;;;;;522867;28;1419;-76
2023/02/07 02:31:19;;;;;;;1.90;1.70;;;;;;;;;;521266;28;1317;-76